sensor_id;sensor_type;location;lat;lon;timestamp;P1;durP1;ratioP1;P2;durP2;ratioP2
73959;SDS011;62316;48.920;2.342;2023-07-20T00:01:56;5.75;;;5.75;;
73959;SDS011;62316;48.920;2.342;2023-07-20T00:04:21;5.00;;;5.00;;
73959;SDS011;62316;48.920;2.342;2023-07-20T00:06:46;4.75;;;4.75;;
73959;SDS011;62316;48.920;2.342;2023-07-20T00:09:12;7.00;;;4.00;;
73959;SDS011;62316;48.920;2.342;2023-07-20T00:11:37;4.75;;;4.50;;
73959;SDS011;62316;48.920;2.342;2023-07-20T00:14:04;9.25;;;6.75;;
73959;SDS011;62316;48.920;2.342;2023-07-20T00:16:30;4.00;;;3.25;;
73959;SDS011;62316;48.920;2.342;2023-07-20T00:18:55;3.00;;;3.00;;
73959;SDS011;62316;48.920;2.342;2023-07-20T00:21:24;8.50;;;7.00;;
73959;SDS011;62316;48.920;2.342;2023-07-20T00:23:50;4.75;;;4.75;;
73959;SDS011;62316;48.920;2.342;2023-07-20T00:26:15;6.67;;;5.67;;
73959;SDS011;62316;48.920;2.342;2023-07-20T00:28:40;8.50;;;6.25;;
73959;SDS011;62316;48.920;2.342;2023-07-20T00:31:06;6.67;;;4.00;;
73959;SDS011;62316;48.920;2.342;2023-07-20T00:33:31;4.00;;;4.00;;
73959;SDS011;62316;48.920;2.342;2023-07-20T00:35:56;6.67;;;4.67;;
73959;SDS011;62316;48.920;2.342;2023-07-20T00:38:22;3.50;;;3.50;;
73959;SDS011;62316;48.920;2.342;2023-07-20T00:40:47;5.00;;;4.25;;
73959;SDS011;62316;48.920;2.342;2023-07-20T00:43:14;4.00;;;4.00;;
73959;SDS011;62316;48.920;2.342;2023-07-20T00:45:40;5.67;;;4.00;;
73959;SDS011;62316;48.920;2.342;2023-07-20T00:48:05;4.67;;;4.00;;
73959;SDS011;62316;48.920;2.342;2023-07-20T00:50:31;4.50;;;3.50;;
73959;SDS011;62316;48.920;2.342;2023-07-20T00:52:57;6.00;;;6.00;;
73959;SDS011;62316;48.920;2.342;2023-07-20T00:55:23;5.00;;;4.00;;
73959;SDS011;62316;48.920;2.342;2023-07-20T00:57:49;4.00;;;4.00;;
73959;SDS011;62316;48.920;2.342;2023-07-20T01:00:18;5.75;;;4.75;;
73959;SDS011;62316;48.920;2.342;2023-07-20T01:02:44;4.50;;;2.75;;
73959;SDS011;62316;48.920;2.342;2023-07-20T01:05:10;5.50;;;5.50;;
73959;SDS011;62316;48.920;2.342;2023-07-20T01:07:54;5.25;;;4.75;;
73959;SDS011;62316;48.920;2.342;2023-07-20T01:12:52;7.00;;;4.50;;
73959;SDS011;62316;48.920;2.342;2023-07-20T01:15:18;5.33;;;4.33;;
73959;SDS011;62316;48.920;2.342;2023-07-20T01:17:44;4.00;;;4.00;;
73959;SDS011;62316;48.920;2.342;2023-07-20T01:20:12;2.67;;;2.67;;
73959;SDS011;62316;48.920;2.342;2023-07-20T01:25:57;5.67;;;4.33;;
73959;SDS011;62316;48.920;2.342;2023-07-20T01:33:47;4.75;;;4.50;;
73959;SDS011;62316;48.920;2.342;2023-07-20T01:36:14;6.33;;;4.33;;
73959;SDS011;62316;48.920;2.342;2023-07-20T01:38:42;5.33;;;5.00;;
73959;SDS011;62316;48.920;2.342;2023-07-20T01:41:07;4.67;;;4.33;;
73959;SDS011;62316;48.920;2.342;2023-07-20T01:43:33;4.00;;;3.00;;
73959;SDS011;62316;48.920;2.342;2023-07-20T01:45:59;5.25;;;5.25;;
73959;SDS011;62316;48.920;2.342;2023-07-20T01:48:24;4.67;;;4.67;;
73959;SDS011;62316;48.920;2.342;2023-07-20T01:50:49;4.33;;;4.33;;
73959;SDS011;62316;48.920;2.342;2023-07-20T01:53:15;7.25;;;4.25;;
73959;SDS011;62316;48.920;2.342;2023-07-20T01:55:40;3.00;;;3.00;;
73959;SDS011;62316;48.920;2.342;2023-07-20T01:58:05;7.00;;;3.00;;
73959;SDS011;62316;48.920;2.342;2023-07-20T02:00:31;4.50;;;4.50;;
73959;SDS011;62316;48.920;2.342;2023-07-20T02:02:57;4.00;;;4.00;;
73959;SDS011;62316;48.920;2.342;2023-07-20T02:05:22;6.25;;;6.25;;
73959;SDS011;62316;48.920;2.342;2023-07-20T02:07:47;2.50;;;2.50;;
73959;SDS011;62316;48.920;2.342;2023-07-20T02:10:13;4.25;;;4.25;;
73959;SDS011;62316;48.920;2.342;2023-07-20T02:12:38;5.00;;;4.00;;
73959;SDS011;62316;48.920;2.342;2023-07-20T02:15:04;3.00;;;3.00;;
73959;SDS011;62316;48.920;2.342;2023-07-20T02:17:30;4.00;;;4.00;;
73959;SDS011;62316;48.920;2.342;2023-07-20T02:19:56;3.00;;;3.00;;
73959;SDS011;62316;48.920;2.342;2023-07-20T02:22:22;3.33;;;3.33;;
73959;SDS011;62316;48.920;2.342;2023-07-20T02:24:48;4.00;;;4.00;;
73959;SDS011;62316;48.920;2.342;2023-07-20T02:27:14;2.00;;;2.00;;
73959;SDS011;62316;48.920;2.342;2023-07-20T02:29:40;4.67;;;4.67;;
73959;SDS011;62316;48.920;2.342;2023-07-20T02:32:06;5.00;;;4.00;;
73959;SDS011;62316;48.920;2.342;2023-07-20T02:34:31;5.00;;;5.00;;
73959;SDS011;62316;48.920;2.342;2023-07-20T02:36:57;7.00;;;5.67;;
73959;SDS011;62316;48.920;2.342;2023-07-20T02:39:23;6.67;;;4.67;;
73959;SDS011;62316;48.920;2.342;2023-07-20T02:41:49;6.00;;;6.00;;
73959;SDS011;62316;48.920;2.342;2023-07-20T02:44:15;5.00;;;5.00;;
73959;SDS011;62316;48.920;2.342;2023-07-20T02:46:40;5.67;;;5.67;;
73959;SDS011;62316;48.920;2.342;2023-07-20T02:49:06;5.33;;;4.67;;
73959;SDS011;62316;48.920;2.342;2023-07-20T02:51:31;4.75;;;4.75;;
73959;SDS011;62316;48.920;2.342;2023-07-20T02:53:56;4.67;;;4.67;;
73959;SDS011;62316;48.920;2.342;2023-07-20T02:56:22;5.33;;;3.67;;
73959;SDS011;62316;48.920;2.342;2023-07-20T02:58:47;5.33;;;5.33;;
73959;SDS011;62316;48.920;2.342;2023-07-20T03:01:13;3.67;;;3.67;;
73959;SDS011;62316;48.920;2.342;2023-07-20T03:03:40;4.25;;;4.00;;
73959;SDS011;62316;48.920;2.342;2023-07-20T03:06:07;4.00;;;4.00;;
73959;SDS011;62316;48.920;2.342;2023-07-20T03:08:34;3.75;;;3.75;;
73959;SDS011;62316;48.920;2.342;2023-07-20T03:11:00;5.75;;;4.75;;
73959;SDS011;62316;48.920;2.342;2023-07-20T03:13:26;5.00;;;4.00;;
73959;SDS011;62316;48.920;2.342;2023-07-20T03:15:52;7.00;;;6.25;;
73959;SDS011;62316;48.920;2.342;2023-07-20T03:18:17;6.50;;;5.00;;
73959;SDS011;62316;48.920;2.342;2023-07-20T03:20:43;4.50;;;4.50;;
73959;SDS011;62316;48.920;2.342;2023-07-20T03:23:08;5.00;;;4.75;;
73959;SDS011;62316;48.920;2.342;2023-07-20T03:25:33;4.25;;;4.25;;
73959;SDS011;62316;48.920;2.342;2023-07-20T03:27:59;5.00;;;4.75;;
73959;SDS011;62316;48.920;2.342;2023-07-20T03:30:24;7.25;;;4.50;;
73959;SDS011;62316;48.920;2.342;2023-07-20T03:32:50;5.00;;;4.75;;
73959;SDS011;62316;48.920;2.342;2023-07-20T03:35:16;6.00;;;5.00;;
73959;SDS011;62316;48.920;2.342;2023-07-20T03:37:41;3.50;;;3.50;;
73959;SDS011;62316;48.920;2.342;2023-07-20T03:40:07;3.33;;;3.33;;
73959;SDS011;62316;48.920;2.342;2023-07-20T03:42:33;4.00;;;4.00;;
73959;SDS011;62316;48.920;2.342;2023-07-20T03:44:58;6.50;;;4.50;;
73959;SDS011;62316;48.920;2.342;2023-07-20T03:47:23;6.33;;;5.33;;
73959;SDS011;62316;48.920;2.342;2023-07-20T03:49:49;5.50;;;3.25;;
73959;SDS011;62316;48.920;2.342;2023-07-20T03:52:14;5.00;;;5.00;;
73959;SDS011;62316;48.920;2.342;2023-07-20T03:54:40;5.00;;;4.67;;
73959;SDS011;62316;48.920;2.342;2023-07-20T03:57:05;5.25;;;4.25;;
73959;SDS011;62316;48.920;2.342;2023-07-20T03:59:30;3.00;;;3.00;;
73959;SDS011;62316;48.920;2.342;2023-07-20T04:01:56;5.25;;;5.00;;
73959;SDS011;62316;48.920;2.342;2023-07-20T04:04:21;5.00;;;5.00;;
73959;SDS011;62316;48.920;2.342;2023-07-20T04:06:46;4.75;;;4.75;;
73959;SDS011;62316;48.920;2.342;2023-07-20T04:09:12;4.75;;;3.25;;
73959;SDS011;62316;48.920;2.342;2023-07-20T04:11:44;4.25;;;3.75;;
73959;SDS011;62316;48.920;2.342;2023-07-20T04:14:10;5.00;;;5.00;;
73959;SDS011;62316;48.920;2.342;2023-07-20T04:16:41;6.00;;;6.00;;
73959;SDS011;62316;48.920;2.342;2023-07-20T04:19:07;5.25;;;4.50;;
73959;SDS011;62316;48.920;2.342;2023-07-20T04:21:39;5.25;;;4.75;;
73959;SDS011;62316;48.920;2.342;2023-07-20T04:24:05;5.00;;;5.00;;
73959;SDS011;62316;48.920;2.342;2023-07-20T04:26:31;4.00;;;3.00;;
73959;SDS011;62316;48.920;2.342;2023-07-20T04:28:56;6.33;;;5.67;;
73959;SDS011;62316;48.920;2.342;2023-07-20T04:31:21;4.25;;;3.75;;
73959;SDS011;62316;48.920;2.342;2023-07-20T04:33:47;5.75;;;5.75;;
73959;SDS011;62316;48.920;2.342;2023-07-20T04:36:12;5.25;;;4.75;;
73959;SDS011;62316;48.920;2.342;2023-07-20T04:38:39;5.50;;;5.50;;
73959;SDS011;62316;48.920;2.342;2023-07-20T04:41:05;6.00;;;5.00;;
73959;SDS011;62316;48.920;2.342;2023-07-20T04:43:30;5.67;;;4.67;;
73959;SDS011;62316;48.920;2.342;2023-07-20T04:45:56;6.00;;;6.00;;
73959;SDS011;62316;48.920;2.342;2023-07-20T04:48:21;6.25;;;5.75;;
73959;SDS011;62316;48.920;2.342;2023-07-20T04:50:47;5.00;;;4.75;;
73959;SDS011;62316;48.920;2.342;2023-07-20T04:53:12;6.25;;;5.00;;
73959;SDS011;62316;48.920;2.342;2023-07-20T04:55:38;4.75;;;4.75;;
73959;SDS011;62316;48.920;2.342;2023-07-20T04:58:04;5.75;;;4.50;;
73959;SDS011;62316;48.920;2.342;2023-07-20T05:00:31;4.25;;;4.25;;
73959;SDS011;62316;48.920;2.342;2023-07-20T05:02:57;3.50;;;3.50;;
73959;SDS011;62316;48.920;2.342;2023-07-20T05:05:23;6.50;;;5.00;;
73959;SDS011;62316;48.920;2.342;2023-07-20T05:07:48;4.75;;;4.75;;
73959;SDS011;62316;48.920;2.342;2023-07-20T05:10:13;5.00;;;4.00;;
73959;SDS011;62316;48.920;2.342;2023-07-20T05:12:39;5.50;;;5.50;;
73959;SDS011;62316;48.920;2.342;2023-07-20T05:15:04;2.67;;;2.67;;
73959;SDS011;62316;48.920;2.342;2023-07-20T05:17:30;7.00;;;5.25;;
73959;SDS011;62316;48.920;2.342;2023-07-20T05:20:02;5.75;;;4.50;;
73959;SDS011;62316;48.920;2.342;2023-07-20T05:22:29;4.25;;;4.25;;
73959;SDS011;62316;48.920;2.342;2023-07-20T05:24:54;4.75;;;2.75;;
73959;SDS011;62316;48.920;2.342;2023-07-20T05:27:20;5.00;;;5.00;;
73959;SDS011;62316;48.920;2.342;2023-07-20T05:29:46;4.25;;;4.25;;
73959;SDS011;62316;48.920;2.342;2023-07-20T05:32:12;3.50;;;3.25;;
73959;SDS011;62316;48.920;2.342;2023-07-20T05:34:37;6.00;;;5.25;;
73959;SDS011;62316;48.920;2.342;2023-07-20T05:37:06;5.50;;;4.75;;
73959;SDS011;62316;48.920;2.342;2023-07-20T05:39:32;7.00;;;5.75;;
73959;SDS011;62316;48.920;2.342;2023-07-20T05:41:58;6.25;;;4.75;;
73959;SDS011;62316;48.920;2.342;2023-07-20T05:44:23;4.00;;;4.00;;
73959;SDS011;62316;48.920;2.342;2023-07-20T05:46:49;6.25;;;5.25;;
73959;SDS011;62316;48.920;2.342;2023-07-20T05:49:14;7.25;;;6.25;;
73959;SDS011;62316;48.920;2.342;2023-07-20T05:51:40;4.25;;;4.00;;
73959;SDS011;62316;48.920;2.342;2023-07-20T05:54:05;7.00;;;6.25;;
73959;SDS011;62316;48.920;2.342;2023-07-20T05:56:31;5.50;;;5.50;;
73959;SDS011;62316;48.920;2.342;2023-07-20T05:58:57;5.50;;;4.75;;
73959;SDS011;62316;48.920;2.342;2023-07-20T06:01:22;7.50;;;5.50;;
73959;SDS011;62316;48.920;2.342;2023-07-20T06:03:47;6.25;;;6.25;;
73959;SDS011;62316;48.920;2.342;2023-07-20T06:06:13;3.00;;;3.00;;
73959;SDS011;62316;48.920;2.342;2023-07-20T06:08:38;4.00;;;4.00;;
73959;SDS011;62316;48.920;2.342;2023-07-20T06:11:04;5.00;;;5.00;;
73959;SDS011;62316;48.920;2.342;2023-07-20T06:13:29;4.00;;;3.50;;
73959;SDS011;62316;48.920;2.342;2023-07-20T06:15:54;9.00;;;5.00;;
73959;SDS011;62316;48.920;2.342;2023-07-20T06:18:21;6.75;;;5.50;;
73959;SDS011;62316;48.920;2.342;2023-07-20T06:20:48;4.00;;;4.00;;
73959;SDS011;62316;48.920;2.342;2023-07-20T06:23:14;0.25;;;0.25;;
73959;SDS011;62316;48.920;2.342;2023-07-20T06:25:40;7.00;;;4.25;;
73959;SDS011;62316;48.920;2.342;2023-07-20T06:28:05;7.50;;;7.50;;
73959;SDS011;62316;48.920;2.342;2023-07-20T06:30:31;5.50;;;5.50;;
73959;SDS011;62316;48.920;2.342;2023-07-20T06:32:58;6.67;;;6.67;;
73959;SDS011;62316;48.920;2.342;2023-07-20T06:35:24;9.50;;;5.75;;
73959;SDS011;62316;48.920;2.342;2023-07-20T06:37:50;8.50;;;6.25;;
73959;SDS011;62316;48.920;2.342;2023-07-20T06:40:15;12.00;;;8.67;;
73959;SDS011;62316;48.920;2.342;2023-07-20T06:42:41;10.50;;;7.50;;
73959;SDS011;62316;48.920;2.342;2023-07-20T06:45:06;7.75;;;6.75;;
73959;SDS011;62316;48.920;2.342;2023-07-20T06:47:32;9.75;;;7.75;;
73959;SDS011;62316;48.920;2.342;2023-07-20T06:49:57;9.00;;;8.00;;
73959;SDS011;62316;48.920;2.342;2023-07-20T06:52:22;8.75;;;8.75;;
73959;SDS011;62316;48.920;2.342;2023-07-20T06:54:48;18.25;;;15.00;;
73959;SDS011;62316;48.920;2.342;2023-07-20T06:57:13;11.50;;;9.25;;
73959;SDS011;62316;48.920;2.342;2023-07-20T06:59:39;13.67;;;10.33;;
73959;SDS011;62316;48.920;2.342;2023-07-20T07:02:04;12.00;;;8.67;;
73959;SDS011;62316;48.920;2.342;2023-07-20T07:04:29;7.50;;;7.00;;
73959;SDS011;62316;48.920;2.342;2023-07-20T07:06:55;15.75;;;11.50;;
73959;SDS011;62316;48.920;2.342;2023-07-20T07:09:20;9.75;;;8.25;;
73959;SDS011;62316;48.920;2.342;2023-07-20T07:11:46;9.75;;;7.75;;
73959;SDS011;62316;48.920;2.342;2023-07-20T07:14:11;14.25;;;11.50;;
73959;SDS011;62316;48.920;2.342;2023-07-20T07:16:37;14.50;;;13.50;;
73959;SDS011;62316;48.920;2.342;2023-07-20T07:19:02;10.00;;;7.50;;
73959;SDS011;62316;48.920;2.342;2023-07-20T07:21:28;10.50;;;9.25;;
73959;SDS011;62316;48.920;2.342;2023-07-20T07:23:54;12.00;;;10.00;;
73959;SDS011;62316;48.920;2.342;2023-07-20T07:26:22;11.75;;;9.75;;
73959;SDS011;62316;48.920;2.342;2023-07-20T07:28:48;12.50;;;10.75;;
73959;SDS011;62316;48.920;2.342;2023-07-20T07:31:13;13.25;;;10.50;;
73959;SDS011;62316;48.920;2.342;2023-07-20T07:33:39;8.50;;;8.50;;
73959;SDS011;62316;48.920;2.342;2023-07-20T07:36:05;22.75;;;20.25;;
73959;SDS011;62316;48.920;2.342;2023-07-20T07:38:30;22.25;;;18.25;;
73959;SDS011;62316;48.920;2.342;2023-07-20T07:40:56;19.67;;;17.33;;
73959;SDS011;62316;48.920;2.342;2023-07-20T07:43:22;11.00;;;9.75;;
73959;SDS011;62316;48.920;2.342;2023-07-20T07:45:48;13.50;;;12.50;;
73959;SDS011;62316;48.920;2.342;2023-07-20T07:48:14;20.50;;;16.00;;
73959;SDS011;62316;48.920;2.342;2023-07-20T07:50:39;14.75;;;13.75;;
73959;SDS011;62316;48.920;2.342;2023-07-20T07:53:07;21.00;;;19.50;;
73959;SDS011;62316;48.920;2.342;2023-07-20T07:55:33;18.25;;;17.00;;
73959;SDS011;62316;48.920;2.342;2023-07-20T07:58:00;19.25;;;16.00;;
73959;SDS011;62316;48.920;2.342;2023-07-20T08:00:26;14.75;;;12.50;;
73959;SDS011;62316;48.920;2.342;2023-07-20T08:02:51;15.50;;;11.25;;
73959;SDS011;62316;48.920;2.342;2023-07-20T08:05:17;8.75;;;8.75;;
73959;SDS011;62316;48.920;2.342;2023-07-20T08:07:42;9.75;;;9.00;;
73959;SDS011;62316;48.920;2.342;2023-07-20T08:10:08;11.75;;;9.00;;
73959;SDS011;62316;48.920;2.342;2023-07-20T08:12:34;8.75;;;8.50;;
73959;SDS011;62316;48.920;2.342;2023-07-20T08:14:59;7.25;;;6.25;;
73959;SDS011;62316;48.920;2.342;2023-07-20T08:17:24;8.25;;;8.25;;
73959;SDS011;62316;48.920;2.342;2023-07-20T08:19:50;1.00;;;1.00;;
73959;SDS011;62316;48.920;2.342;2023-07-20T08:22:15;7.00;;;5.75;;
73959;SDS011;62316;48.920;2.342;2023-07-20T08:24:41;8.50;;;8.50;;
73959;SDS011;62316;48.920;2.342;2023-07-20T08:27:07;6.00;;;5.00;;
73959;SDS011;62316;48.920;2.342;2023-07-20T08:29:33;8.75;;;8.00;;
73959;SDS011;62316;48.920;2.342;2023-07-20T08:31:59;7.00;;;7.00;;
73959;SDS011;62316;48.920;2.342;2023-07-20T08:34:25;5.00;;;5.00;;
73959;SDS011;62316;48.920;2.342;2023-07-20T08:36:50;7.25;;;7.25;;
73959;SDS011;62316;48.920;2.342;2023-07-20T08:39:16;7.67;;;5.00;;
73959;SDS011;62316;48.920;2.342;2023-07-20T08:41:42;4.67;;;4.67;;
73959;SDS011;62316;48.920;2.342;2023-07-20T08:44:08;5.00;;;5.00;;
73959;SDS011;62316;48.920;2.342;2023-07-20T08:46:35;3.67;;;2.67;;
73959;SDS011;62316;48.920;2.342;2023-07-20T08:49:03;8.25;;;6.00;;
73959;SDS011;62316;48.920;2.342;2023-07-20T08:51:29;4.00;;;4.00;;
73959;SDS011;62316;48.920;2.342;2023-07-20T08:53:55;6.50;;;6.50;;
73959;SDS011;62316;48.920;2.342;2023-07-20T08:56:21;6.00;;;5.50;;
73959;SDS011;62316;48.920;2.342;2023-07-20T08:58:49;7.00;;;5.00;;
73959;SDS011;62316;48.920;2.342;2023-07-20T09:01:14;5.75;;;4.00;;
73959;SDS011;62316;48.920;2.342;2023-07-20T09:03:41;8.00;;;6.25;;
73959;SDS011;62316;48.920;2.342;2023-07-20T09:06:08;9.00;;;6.00;;
73959;SDS011;62316;48.920;2.342;2023-07-20T09:08:33;6.75;;;6.75;;
73959;SDS011;62316;48.920;2.342;2023-07-20T09:11:03;10.50;;;9.25;;
73959;SDS011;62316;48.920;2.342;2023-07-20T09:13:29;3.67;;;3.00;;
73959;SDS011;62316;48.920;2.342;2023-07-20T09:15:54;4.00;;;4.00;;
73959;SDS011;62316;48.920;2.342;2023-07-20T09:18:24;2.00;;;2.00;;
73959;SDS011;62316;48.920;2.342;2023-07-20T09:20:53;5.50;;;5.50;;
73959;SDS011;62316;48.920;2.342;2023-07-20T09:23:34;0.33;;;0.33;;
73959;SDS011;62316;48.920;2.342;2023-07-20T09:26:04;4.00;;;3.00;;
73959;SDS011;62316;48.920;2.342;2023-07-20T09:28:41;2.33;;;2.00;;
73959;SDS011;62316;48.920;2.342;2023-07-20T09:31:16;2.67;;;2.67;;
73959;SDS011;62316;48.920;2.342;2023-07-20T09:33:43;4.00;;;3.67;;
73959;SDS011;62316;48.920;2.342;2023-07-20T09:36:09;2.00;;;2.00;;
73959;SDS011;62316;48.920;2.342;2023-07-20T09:38:36;3.33;;;3.33;;
73959;SDS011;62316;48.920;2.342;2023-07-20T09:41:02;2.00;;;2.00;;
73959;SDS011;62316;48.920;2.342;2023-07-20T09:43:29;3.00;;;1.00;;
73959;SDS011;62316;48.920;2.342;2023-07-20T09:45:58;3.00;;;2.00;;
73959;SDS011;62316;48.920;2.342;2023-07-20T09:48:24;1.00;;;1.00;;
73959;SDS011;62316;48.920;2.342;2023-07-20T09:50:51;3.00;;;2.67;;
73959;SDS011;62316;48.920;2.342;2023-07-20T09:53:17;1.67;;;1.67;;
73959;SDS011;62316;48.920;2.342;2023-07-20T09:55:46;0.00;;;0.00;;
73959;SDS011;62316;48.920;2.342;2023-07-20T09:58:12;1.33;;;1.33;;
73959;SDS011;62316;48.920;2.342;2023-07-20T10:00:39;3.00;;;3.00;;
73959;SDS011;62316;48.920;2.342;2023-07-20T10:03:06;2.67;;;2.67;;
73959;SDS011;62316;48.920;2.342;2023-07-20T10:05:39;1.00;;;1.00;;
73959;SDS011;62316;48.920;2.342;2023-07-20T10:08:08;3.00;;;1.67;;
73959;SDS011;62316;48.920;2.342;2023-07-20T10:10:36;3.67;;;3.67;;
73959;SDS011;62316;48.920;2.342;2023-07-20T10:13:03;3.67;;;2.00;;
73959;SDS011;62316;48.920;2.342;2023-07-20T10:15:40;2.67;;;2.67;;
73959;SDS011;62316;48.920;2.342;2023-07-20T10:18:12;3.00;;;2.00;;
73959;SDS011;62316;48.920;2.342;2023-07-20T10:20:42;3.33;;;2.33;;
73959;SDS011;62316;48.920;2.342;2023-07-20T10:23:08;1.67;;;1.67;;
73959;SDS011;62316;48.920;2.342;2023-07-20T10:25:34;3.00;;;3.00;;
73959;SDS011;62316;48.920;2.342;2023-07-20T10:28:03;3.00;;;2.00;;
73959;SDS011;62316;48.920;2.342;2023-07-20T10:30:31;3.00;;;2.00;;
73959;SDS011;62316;48.920;2.342;2023-07-20T10:32:57;1.33;;;1.33;;
73959;SDS011;62316;48.920;2.342;2023-07-20T10:35:23;2.00;;;2.00;;
73959;SDS011;62316;48.920;2.342;2023-07-20T10:37:49;2.33;;;1.67;;
73959;SDS011;62316;48.920;2.342;2023-07-20T10:43:00;5.00;;;3.00;;
73959;SDS011;62316;48.920;2.342;2023-07-20T10:45:42;5.00;;;4.00;;
73959;SDS011;62316;48.920;2.342;2023-07-20T10:48:16;4.33;;;4.00;;
73959;SDS011;62316;48.920;2.342;2023-07-20T10:53:37;3.00;;;3.00;;
73959;SDS011;62316;48.920;2.342;2023-07-20T10:56:11;3.67;;;3.67;;
73959;SDS011;62316;48.920;2.342;2023-07-20T10:58:38;3.67;;;2.67;;
73959;SDS011;62316;48.920;2.342;2023-07-20T11:01:04;3.00;;;3.00;;
73959;SDS011;62316;48.920;2.342;2023-07-20T11:03:35;4.33;;;4.00;;
73959;SDS011;62316;48.920;2.342;2023-07-20T11:06:48;5.00;;;4.00;;
73959;SDS011;62316;48.920;2.342;2023-07-20T11:08:49;3.00;;;3.00;;
73959;SDS011;62316;48.920;2.342;2023-07-20T11:11:29;5.00;;;4.33;;
73959;SDS011;62316;48.920;2.342;2023-07-20T11:13:59;2.00;;;2.00;;
73959;SDS011;62316;48.920;2.342;2023-07-20T11:19:25;3.33;;;2.00;;
73959;SDS011;62316;48.920;2.342;2023-07-20T11:21:52;4.00;;;4.00;;
73959;SDS011;62316;48.920;2.342;2023-07-20T11:24:22;2.67;;;2.33;;
73959;SDS011;62316;48.920;2.342;2023-07-20T11:26:52;3.00;;;3.00;;
73959;SDS011;62316;48.920;2.342;2023-07-20T11:29:22;4.00;;;4.00;;
73959;SDS011;62316;48.920;2.342;2023-07-20T11:31:50;3.00;;;3.00;;
73959;SDS011;62316;48.920;2.342;2023-07-20T11:34:17;4.00;;;4.00;;
73959;SDS011;62316;48.920;2.342;2023-07-20T11:36:44;3.00;;;3.00;;
73959;SDS011;62316;48.920;2.342;2023-07-20T11:39:14;2.33;;;2.00;;
73959;SDS011;62316;48.920;2.342;2023-07-20T11:41:44;4.33;;;4.00;;
73959;SDS011;62316;48.920;2.342;2023-07-20T11:44:20;1.67;;;1.00;;
73959;SDS011;62316;48.920;2.342;2023-07-20T11:46:51;3.00;;;3.00;;
73959;SDS011;62316;48.920;2.342;2023-07-20T11:49:18;2.00;;;2.00;;
73959;SDS011;62316;48.920;2.342;2023-07-20T11:51:44;2.67;;;2.67;;
73959;SDS011;62316;48.920;2.342;2023-07-20T11:54:09;4.00;;;4.00;;
73959;SDS011;62316;48.920;2.342;2023-07-20T11:56:35;6.00;;;4.00;;
73959;SDS011;62316;48.920;2.342;2023-07-20T11:59:01;4.00;;;3.00;;
73959;SDS011;62316;48.920;2.342;2023-07-20T12:01:28;2.67;;;2.33;;
73959;SDS011;62316;48.920;2.342;2023-07-20T12:04:01;2.67;;;1.00;;
73959;SDS011;62316;48.920;2.342;2023-07-20T12:06:28;1.67;;;1.67;;
73959;SDS011;62316;48.920;2.342;2023-07-20T12:08:54;2.00;;;0.67;;
73959;SDS011;62316;48.920;2.342;2023-07-20T12:11:34;2.00;;;2.00;;
73959;SDS011;62316;48.920;2.342;2023-07-20T12:14:00;2.00;;;2.00;;
73959;SDS011;62316;48.920;2.342;2023-07-20T12:16:27;1.33;;;1.00;;
73959;SDS011;62316;48.920;2.342;2023-07-20T12:19:03;2.33;;;2.33;;
73959;SDS011;62316;48.920;2.342;2023-07-20T12:21:30;0.67;;;0.67;;
73959;SDS011;62316;48.920;2.342;2023-07-20T12:23:57;1.33;;;1.33;;
73959;SDS011;62316;48.920;2.342;2023-07-20T12:26:23;2.00;;;2.00;;
73959;SDS011;62316;48.920;2.342;2023-07-20T12:28:49;2.00;;;2.00;;
73959;SDS011;62316;48.920;2.342;2023-07-20T12:31:14;2.00;;;2.00;;
73959;SDS011;62316;48.920;2.342;2023-07-20T12:33:40;1.00;;;1.00;;
73959;SDS011;62316;48.920;2.342;2023-07-20T12:36:05;1.00;;;1.00;;
73959;SDS011;62316;48.920;2.342;2023-07-20T12:38:31;3.00;;;1.00;;
73959;SDS011;62316;48.920;2.342;2023-07-20T12:40:56;1.67;;;1.67;;
73959;SDS011;62316;48.920;2.342;2023-07-20T12:43:23;3.33;;;3.33;;
73959;SDS011;62316;48.920;2.342;2023-07-20T12:45:49;0.33;;;0.33;;
73959;SDS011;62316;48.920;2.342;2023-07-20T12:48:14;2.33;;;1.00;;
73959;SDS011;62316;48.920;2.342;2023-07-20T12:50:39;2.33;;;2.33;;
73959;SDS011;62316;48.920;2.342;2023-07-20T12:53:05;1.33;;;1.33;;
73959;SDS011;62316;48.920;2.342;2023-07-20T12:55:31;1.00;;;1.00;;
73959;SDS011;62316;48.920;2.342;2023-07-20T12:57:56;1.33;;;1.33;;
73959;SDS011;62316;48.920;2.342;2023-07-20T13:00:22;1.67;;;1.67;;
73959;SDS011;62316;48.920;2.342;2023-07-20T13:02:48;2.00;;;1.00;;
73959;SDS011;62316;48.920;2.342;2023-07-20T13:05:14;3.67;;;2.67;;
73959;SDS011;62316;48.920;2.342;2023-07-20T13:07:40;1.67;;;1.67;;
73959;SDS011;62316;48.920;2.342;2023-07-20T13:10:06;2.00;;;2.00;;
73959;SDS011;62316;48.920;2.342;2023-07-20T13:12:33;2.00;;;1.00;;
73959;SDS011;62316;48.920;2.342;2023-07-20T13:15:00;2.00;;;2.00;;
73959;SDS011;62316;48.920;2.342;2023-07-20T13:17:27;1.00;;;1.00;;
73959;SDS011;62316;48.920;2.342;2023-07-20T13:19:53;1.00;;;1.00;;
73959;SDS011;62316;48.920;2.342;2023-07-20T13:22:19;2.00;;;1.00;;
73959;SDS011;62316;48.920;2.342;2023-07-20T13:24:44;1.00;;;1.00;;
73959;SDS011;62316;48.920;2.342;2023-07-20T13:27:13;1.33;;;1.33;;
73959;SDS011;62316;48.920;2.342;2023-07-20T13:29:39;1.67;;;1.67;;
73959;SDS011;62316;48.920;2.342;2023-07-20T13:32:04;2.00;;;2.00;;
73959;SDS011;62316;48.920;2.342;2023-07-20T13:34:31;3.00;;;2.00;;
73959;SDS011;62316;48.920;2.342;2023-07-20T13:36:56;2.00;;;2.00;;
73959;SDS011;62316;48.920;2.342;2023-07-20T13:39:22;3.00;;;2.00;;
73959;SDS011;62316;48.920;2.342;2023-07-20T13:41:49;1.33;;;1.33;;
73959;SDS011;62316;48.920;2.342;2023-07-20T13:44:14;2.67;;;2.67;;
73959;SDS011;62316;48.920;2.342;2023-07-20T13:46:40;1.67;;;1.00;;
73959;SDS011;62316;48.920;2.342;2023-07-20T13:49:05;4.00;;;3.00;;
73959;SDS011;62316;48.920;2.342;2023-07-20T13:51:31;1.67;;;1.67;;
73959;SDS011;62316;48.920;2.342;2023-07-20T13:53:56;2.00;;;2.00;;
73959;SDS011;62316;48.920;2.342;2023-07-20T13:56:22;2.00;;;2.00;;
73959;SDS011;62316;48.920;2.342;2023-07-20T13:58:49;1.33;;;1.33;;
73959;SDS011;62316;48.920;2.342;2023-07-20T14:01:15;3.67;;;2.67;;
73959;SDS011;62316;48.920;2.342;2023-07-20T14:03:41;2.00;;;2.00;;
73959;SDS011;62316;48.920;2.342;2023-07-20T14:06:06;3.00;;;2.67;;
73959;SDS011;62316;48.920;2.342;2023-07-20T14:08:32;1.00;;;1.00;;
73959;SDS011;62316;48.920;2.342;2023-07-20T14:10:57;2.00;;;2.00;;
73959;SDS011;62316;48.920;2.342;2023-07-20T14:13:23;2.00;;;2.00;;
73959;SDS011;62316;48.920;2.342;2023-07-20T14:15:48;1.00;;;1.00;;
73959;SDS011;62316;48.920;2.342;2023-07-20T14:18:15;2.00;;;2.00;;
73959;SDS011;62316;48.920;2.342;2023-07-20T14:20:40;1.00;;;1.00;;
73959;SDS011;62316;48.920;2.342;2023-07-20T14:23:06;4.67;;;2.00;;
73959;SDS011;62316;48.920;2.342;2023-07-20T14:25:31;3.00;;;3.00;;
73959;SDS011;62316;48.920;2.342;2023-07-20T14:27:58;5.25;;;5.25;;
73959;SDS011;62316;48.920;2.342;2023-07-20T14:30:24;3.67;;;3.67;;
73959;SDS011;62316;48.920;2.342;2023-07-20T14:32:49;4.00;;;4.00;;
73959;SDS011;62316;48.920;2.342;2023-07-20T14:35:15;2.00;;;2.00;;
73959;SDS011;62316;48.920;2.342;2023-07-20T14:37:40;2.00;;;2.00;;
73959;SDS011;62316;48.920;2.342;2023-07-20T14:40:06;0.33;;;0.33;;
73959;SDS011;62316;48.920;2.342;2023-07-20T14:42:32;3.33;;;2.33;;
73959;SDS011;62316;48.920;2.342;2023-07-20T14:44:57;1.00;;;1.00;;
73959;SDS011;62316;48.920;2.342;2023-07-20T14:47:23;2.33;;;2.00;;
73959;SDS011;62316;48.920;2.342;2023-07-20T14:49:54;2.33;;;1.33;;
73959;SDS011;62316;48.920;2.342;2023-07-20T14:52:20;1.00;;;1.00;;
73959;SDS011;62316;48.920;2.342;2023-07-20T14:54:46;12.50;;;10.50;;
73959;SDS011;62316;48.920;2.342;2023-07-20T14:57:11;1.67;;;1.67;;
73959;SDS011;62316;48.920;2.342;2023-07-20T14:59:39;3.00;;;3.00;;
73959;SDS011;62316;48.920;2.342;2023-07-20T15:02:05;3.00;;;2.33;;